sensor_id;sensor_type;location;lat;lon;timestamp;temperature;humidity
76291;DHT22;65100;46.884;17.410;2023-02-23T00:01:37;5.14;77.71
76291;DHT22;65100;46.884;17.410;2023-02-23T00:04:04;5.07;77.56
76291;DHT22;65100;46.884;17.410;2023-02-23T00:06:31;4.98;78.12
76291;DHT22;65100;46.884;17.410;2023-02-23T00:08:57;4.90;78.15
76291;DHT22;65100;46.884;17.410;2023-02-23T00:11:26;4.88;78.96
76291;DHT22;65100;46.884;17.410;2023-02-23T00:13:52;4.85;78.85
76291;DHT22;65100;46.884;17.410;2023-02-23T00:16:20;4.91;78.59
76291;DHT22;65100;46.884;17.410;2023-02-23T00:18:51;4.84;77.85
76291;DHT22;65100;46.884;17.410;2023-02-23T00:21:26;4.83;78.12
76291;DHT22;65100;46.884;17.410;2023-02-23T00:24:07;4.80;78.44
76291;DHT22;65100;46.884;17.410;2023-02-23T00:26:34;4.87;78.72
76291;DHT22;65100;46.884;17.410;2023-02-23T00:29:02;4.87;78.78
76291;DHT22;65100;46.884;17.410;2023-02-23T00:31:29;4.83;78.32
76291;DHT22;65100;46.884;17.410;2023-02-23T00:33:57;4.77;78.15
76291;DHT22;65100;46.884;17.410;2023-02-23T00:36:32;4.79;78.72
76291;DHT22;65100;46.884;17.410;2023-02-23T00:39:00;4.85;79.09
76291;DHT22;65100;46.884;17.410;2023-02-23T00:41:26;4.79;78.43
76291;DHT22;65100;46.884;17.410;2023-02-23T00:43:55;4.71;78.32
76291;DHT22;65100;46.884;17.410;2023-02-23T00:46:23;4.71;78.56
76291;DHT22;65100;46.884;17.410;2023-02-23T00:48:51;4.71;79.21
76291;DHT22;65100;46.884;17.410;2023-02-23T00:51:17;4.69;78.17
76291;DHT22;65100;46.884;17.410;2023-02-23T00:53:44;4.69;78.21
76291;DHT22;65100;46.884;17.410;2023-02-23T00:56:12;4.66;78.22
76291;DHT22;65100;46.884;17.410;2023-02-23T00:58:38;4.64;78.87
76291;DHT22;65100;46.884;17.410;2023-02-23T01:01:11;4.59;77.79
76291;DHT22;65100;46.884;17.410;2023-02-23T01:03:38;4.50;78.12
76291;DHT22;65100;46.884;17.410;2023-02-23T01:06:07;4.52;78.59
76291;DHT22;65100;46.884;17.410;2023-02-23T01:08:39;4.52;78.52
76291;DHT22;65100;46.884;17.410;2023-02-23T01:11:12;4.47;78.38
76291;DHT22;65100;46.884;17.410;2023-02-23T01:13:41;4.54;78.83
76291;DHT22;65100;46.884;17.410;2023-02-23T01:16:09;4.56;79.45
76291;DHT22;65100;46.884;17.410;2023-02-23T01:18:36;4.60;78.64
76291;DHT22;65100;46.884;17.410;2023-02-23T01:21:03;4.54;78.05
76291;DHT22;65100;46.884;17.410;2023-02-23T01:23:31;4.49;77.95
76291;DHT22;65100;46.884;17.410;2023-02-23T01:25:57;4.45;77.39
76291;DHT22;65100;46.884;17.410;2023-02-23T01:28:23;4.49;78.83
76291;DHT22;65100;46.884;17.410;2023-02-23T01:30:49;4.54;79.13
76291;DHT22;65100;46.884;17.410;2023-02-23T01:33:14;4.56;79.06
76291;DHT22;65100;46.884;17.410;2023-02-23T01:35:40;4.59;78.43
76291;DHT22;65100;46.884;17.410;2023-02-23T01:38:05;4.53;78.38
76291;DHT22;65100;46.884;17.410;2023-02-23T01:40:31;4.54;78.79
76291;DHT22;65100;46.884;17.410;2023-02-23T01:43:18;4.64;78.68
76291;DHT22;65100;46.884;17.410;2023-02-23T01:45:55;4.70;78.41
76291;DHT22;65100;46.884;17.410;2023-02-23T01:48:23;4.60;78.45
76291;DHT22;65100;46.884;17.410;2023-02-23T01:51:01;4.56;78.62
76291;DHT22;65100;46.884;17.410;2023-02-23T01:53:29;4.54;78.26
76291;DHT22;65100;46.884;17.410;2023-02-23T01:56:02;4.52;78.74
76291;DHT22;65100;46.884;17.410;2023-02-23T01:58:31;4.50;77.53
76291;DHT22;65100;46.884;17.410;2023-02-23T02:00:58;4.46;78.39
76291;DHT22;65100;46.884;17.410;2023-02-23T02:03:35;4.43;78.65
76291;DHT22;65100;46.884;17.410;2023-02-23T02:06:03;4.40;78.29
76291;DHT22;65100;46.884;17.410;2023-02-23T02:08:30;4.40;78.46
76291;DHT22;65100;46.884;17.410;2023-02-23T02:10:57;4.32;77.89
76291;DHT22;65100;46.884;17.410;2023-02-23T02:13:28;4.32;79.08
76291;DHT22;65100;46.884;17.410;2023-02-23T02:16:09;4.33;79.05
76291;DHT22;65100;46.884;17.410;2023-02-23T02:33:58;4.23;78.54
76291;DHT22;65100;46.884;17.410;2023-02-23T02:47:12;4.12;79.06
76291;DHT22;65100;46.884;17.410;2023-02-23T02:50:24;4.09;79.18
76291;DHT22;65100;46.884;17.410;2023-02-23T02:52:37;4.06;78.32
76291;DHT22;65100;46.884;17.410;2023-02-23T02:55:21;4.03;78.58
76291;DHT22;65100;46.884;17.410;2023-02-23T02:57:49;3.98;77.97
76291;DHT22;65100;46.884;17.410;2023-02-23T03:00:22;4.03;79.22
76291;DHT22;65100;46.884;17.410;2023-02-23T03:03:38;4.01;79.92
76291;DHT22;65100;46.884;17.410;2023-02-23T03:06:28;3.94;78.35
76291;DHT22;65100;46.884;17.410;2023-02-23T03:13:12;3.98;80.38
76291;DHT22;65100;46.884;17.410;2023-02-23T03:15:40;4.05;80.39
76291;DHT22;65100;46.884;17.410;2023-02-23T03:21:30;4.06;79.55
76291;DHT22;65100;46.884;17.410;2023-02-23T03:30:22;3.75;78.28
76291;DHT22;65100;46.884;17.410;2023-02-23T03:33:16;3.72;79.62
76291;DHT22;65100;46.884;17.410;2023-02-23T03:36:06;3.64;79.33
76291;DHT22;65100;46.884;17.410;2023-02-23T03:41:51;3.62;79.71
76291;DHT22;65100;46.884;17.410;2023-02-23T03:44:41;3.62;79.25
76291;DHT22;65100;46.884;17.410;2023-02-23T03:47:28;3.58;79.29
76291;DHT22;65100;46.884;17.410;2023-02-23T03:50:31;3.50;78.72
76291;DHT22;65100;46.884;17.410;2023-02-23T03:53:23;3.47;79.93
76291;DHT22;65100;46.884;17.410;2023-02-23T03:56:08;3.39;80.23
76291;DHT22;65100;46.884;17.410;2023-02-23T03:58:57;3.55;80.41
76291;DHT22;65100;46.884;17.410;2023-02-23T04:01:42;3.61;79.81
76291;DHT22;65100;46.884;17.410;2023-02-23T04:04:26;3.68;79.55
76291;DHT22;65100;46.884;17.410;2023-02-23T04:07:15;3.67;79.72
76291;DHT22;65100;46.884;17.410;2023-02-23T04:10:00;3.67;80.44
76291;DHT22;65100;46.884;17.410;2023-02-23T04:15:38;3.72;78.62
76291;DHT22;65100;46.884;17.410;2023-02-23T04:18:05;3.70;78.97
76291;DHT22;65100;46.884;17.410;2023-02-23T04:20:31;3.82;80.00
76291;DHT22;65100;46.884;17.410;2023-02-23T04:22:57;3.82;79.48
76291;DHT22;65100;46.884;17.410;2023-02-23T04:25:22;3.94;79.39
76291;DHT22;65100;46.884;17.410;2023-02-23T04:27:49;3.95;79.91
76291;DHT22;65100;46.884;17.410;2023-02-23T04:30:14;4.05;79.60
76291;DHT22;65100;46.884;17.410;2023-02-23T04:32:40;3.86;78.31
76291;DHT22;65100;46.884;17.410;2023-02-23T04:35:06;3.67;76.56
76291;DHT22;65100;46.884;17.410;2023-02-23T04:37:31;3.50;77.45
76291;DHT22;65100;46.884;17.410;2023-02-23T04:39:57;3.48;78.45
76291;DHT22;65100;46.884;17.410;2023-02-23T04:42:22;3.48;79.01
76291;DHT22;65100;46.884;17.410;2023-02-23T04:44:48;3.47;79.42
76291;DHT22;65100;46.884;17.410;2023-02-23T04:47:14;3.45;79.14
76291;DHT22;65100;46.884;17.410;2023-02-23T04:49:41;3.45;79.43
76291;DHT22;65100;46.884;17.410;2023-02-23T04:52:07;3.48;79.80
76291;DHT22;65100;46.884;17.410;2023-02-23T04:54:32;3.55;78.89
76291;DHT22;65100;46.884;17.410;2023-02-23T04:56:58;3.55;78.94
76291;DHT22;65100;46.884;17.410;2023-02-23T04:59:23;3.52;79.38
76291;DHT22;65100;46.884;17.410;2023-02-23T05:01:49;3.57;78.81
76291;DHT22;65100;46.884;17.410;2023-02-23T05:04:14;3.58;80.11
76291;DHT22;65100;46.884;17.410;2023-02-23T05:06:40;3.68;80.17
76291;DHT22;65100;46.884;17.410;2023-02-23T05:09:07;3.75;80.70
76291;DHT22;65100;46.884;17.410;2023-02-23T05:11:32;3.78;80.09
76291;DHT22;65100;46.884;17.410;2023-02-23T05:13:58;3.83;79.98
76291;DHT22;65100;46.884;17.410;2023-02-23T05:16:23;3.91;80.04
76291;DHT22;65100;46.884;17.410;2023-02-23T05:18:49;3.99;80.51
76291;DHT22;65100;46.884;17.410;2023-02-23T05:21:14;4.12;80.83
76291;DHT22;65100;46.884;17.410;2023-02-23T05:23:40;4.19;81.50
76291;DHT22;65100;46.884;17.410;2023-02-23T05:26:11;4.29;82.43
76291;DHT22;65100;46.884;17.410;2023-02-23T05:28:38;4.42;82.62
76291;DHT22;65100;46.884;17.410;2023-02-23T05:31:04;4.45;80.98
76291;DHT22;65100;46.884;17.410;2023-02-23T05:33:31;4.46;80.04
76291;DHT22;65100;46.884;17.410;2023-02-23T05:35:57;4.53;80.24
76291;DHT22;65100;46.884;17.410;2023-02-23T05:38:23;4.57;80.54
76291;DHT22;65100;46.884;17.410;2023-02-23T05:40:48;4.61;81.28
76291;DHT22;65100;46.884;17.410;2023-02-23T05:43:14;4.74;80.73
76291;DHT22;65100;46.884;17.410;2023-02-23T05:45:40;4.73;81.33
76291;DHT22;65100;46.884;17.410;2023-02-23T05:48:07;4.85;81.83
76291;DHT22;65100;46.884;17.410;2023-02-23T05:50:33;4.93;81.55
76291;DHT22;65100;46.884;17.410;2023-02-23T05:52:58;5.03;81.67
76291;DHT22;65100;46.884;17.410;2023-02-23T05:55:24;5.03;81.59
76291;DHT22;65100;46.884;17.410;2023-02-23T05:57:50;5.20;81.04
76291;DHT22;65100;46.884;17.410;2023-02-23T06:00:15;5.27;80.96
76291;DHT22;65100;46.884;17.410;2023-02-23T06:02:42;5.45;80.35
76291;DHT22;65100;46.884;17.410;2023-02-23T06:05:08;5.47;79.93
76291;DHT22;65100;46.884;17.410;2023-02-23T06:07:34;5.51;80.29
76291;DHT22;65100;46.884;17.410;2023-02-23T06:10:00;5.61;80.95
76291;DHT22;65100;46.884;17.410;2023-02-23T06:12:25;5.71;80.69
76291;DHT22;65100;46.884;17.410;2023-02-23T06:14:51;5.78;80.65
76291;DHT22;65100;46.884;17.410;2023-02-23T06:17:17;5.83;81.38
76291;DHT22;65100;46.884;17.410;2023-02-23T06:19:42;5.79;80.91
76291;DHT22;65100;46.884;17.410;2023-02-23T06:22:08;5.91;80.80
76291;DHT22;65100;46.884;17.410;2023-02-23T06:24:33;5.82;81.42
76291;DHT22;65100;46.884;17.410;2023-02-23T06:26:59;6.02;81.35
76291;DHT22;65100;46.884;17.410;2023-02-23T06:29:25;6.25;81.03
76291;DHT22;65100;46.884;17.410;2023-02-23T06:31:50;6.39;82.51
76291;DHT22;65100;46.884;17.410;2023-02-23T06:34:16;6.43;82.36
76291;DHT22;65100;46.884;17.410;2023-02-23T06:36:41;6.54;81.47
76291;DHT22;65100;46.884;17.410;2023-02-23T06:39:09;6.69;80.66
76291;DHT22;65100;46.884;17.410;2023-02-23T06:41:36;6.76;80.76
76291;DHT22;65100;46.884;17.410;2023-02-23T06:44:01;6.90;80.74
76291;DHT22;65100;46.884;17.410;2023-02-23T06:46:27;6.87;81.32
76291;DHT22;65100;46.884;17.410;2023-02-23T06:48:55;6.77;81.81
76291;DHT22;65100;46.884;17.410;2023-02-23T06:51:22;6.81;82.10
76291;DHT22;65100;46.884;17.410;2023-02-23T06:53:48;6.88;82.29
76291;DHT22;65100;46.884;17.410;2023-02-23T06:56:13;7.12;81.69
76291;DHT22;65100;46.884;17.410;2023-02-23T06:58:39;7.32;81.35
76291;DHT22;65100;46.884;17.410;2023-02-23T07:01:05;7.42;82.42
76291;DHT22;65100;46.884;17.410;2023-02-23T07:03:30;7.55;82.18
76291;DHT22;65100;46.884;17.410;2023-02-23T07:05:56;7.59;81.99
76291;DHT22;65100;46.884;17.410;2023-02-23T07:08:21;7.78;81.23
76291;DHT22;65100;46.884;17.410;2023-02-23T07:10:47;7.96;80.50
76291;DHT22;65100;46.884;17.410;2023-02-23T07:13:13;7.97;80.63
76291;DHT22;65100;46.884;17.410;2023-02-23T07:15:39;7.96;80.50
76291;DHT22;65100;46.884;17.410;2023-02-23T07:18:05;8.10;80.40
76291;DHT22;65100;46.884;17.410;2023-02-23T07:20:31;8.12;80.41
76291;DHT22;65100;46.884;17.410;2023-02-23T07:22:57;8.04;80.41
76291;DHT22;65100;46.884;17.410;2023-02-23T07:25:28;8.02;80.90
76291;DHT22;65100;46.884;17.410;2023-02-23T07:27:54;8.13;80.46
76291;DHT22;65100;46.884;17.410;2023-02-23T07:30:21;8.25;79.98
76291;DHT22;65100;46.884;17.410;2023-02-23T07:32:50;8.30;79.84
76291;DHT22;65100;46.884;17.410;2023-02-23T07:35:37;8.27;79.99
76291;DHT22;65100;46.884;17.410;2023-02-23T07:38:02;8.46;79.63
76291;DHT22;65100;46.884;17.410;2023-02-23T07:40:28;8.44;79.22
76291;DHT22;65100;46.884;17.410;2023-02-23T07:42:54;8.41;79.32
76291;DHT22;65100;46.884;17.410;2023-02-23T07:45:19;8.38;79.68
76291;DHT22;65100;46.884;17.410;2023-02-23T07:47:45;8.47;79.43
76291;DHT22;65100;46.884;17.410;2023-02-23T07:50:11;8.61;78.42
76291;DHT22;65100;46.884;17.410;2023-02-23T07:52:37;8.61;78.72
76291;DHT22;65100;46.884;17.410;2023-02-23T07:55:03;8.54;78.31
76291;DHT22;65100;46.884;17.410;2023-02-23T07:57:29;8.53;78.99
76291;DHT22;65100;46.884;17.410;2023-02-23T07:59:54;8.65;78.36
76291;DHT22;65100;46.884;17.410;2023-02-23T08:02:19;8.61;78.99
76291;DHT22;65100;46.884;17.410;2023-02-23T08:04:45;8.70;78.25
76291;DHT22;65100;46.884;17.410;2023-02-23T08:07:12;8.80;78.17
76291;DHT22;65100;46.884;17.410;2023-02-23T08:09:37;8.65;78.19
76291;DHT22;65100;46.884;17.410;2023-02-23T08:12:03;8.84;77.60
76291;DHT22;65100;46.884;17.410;2023-02-23T08:14:28;8.80;77.98
76291;DHT22;65100;46.884;17.410;2023-02-23T08:16:54;8.88;77.25
76291;DHT22;65100;46.884;17.410;2023-02-23T08:19:19;8.89;77.64
76291;DHT22;65100;46.884;17.410;2023-02-23T08:21:47;8.98;77.21
76291;DHT22;65100;46.884;17.410;2023-02-23T08:24:13;9.02;76.45
76291;DHT22;65100;46.884;17.410;2023-02-23T08:26:39;9.10;76.19
76291;DHT22;65100;46.884;17.410;2023-02-23T08:29:05;9.14;76.27
76291;DHT22;65100;46.884;17.410;2023-02-23T08:31:31;9.01;77.15
76291;DHT22;65100;46.884;17.410;2023-02-23T08:33:57;9.16;76.04
76291;DHT22;65100;46.884;17.410;2023-02-23T08:36:22;9.19;76.46
76291;DHT22;65100;46.884;17.410;2023-02-23T08:38:48;9.25;75.71
76291;DHT22;65100;46.884;17.410;2023-02-23T08:41:14;9.25;76.00
76291;DHT22;65100;46.884;17.410;2023-02-23T08:43:40;9.36;75.54
76291;DHT22;65100;46.884;17.410;2023-02-23T08:46:06;9.25;75.28
76291;DHT22;65100;46.884;17.410;2023-02-23T08:48:32;9.39;75.21
76291;DHT22;65100;46.884;17.410;2023-02-23T08:50:58;9.43;74.91
76291;DHT22;65100;46.884;17.410;2023-02-23T08:53:25;9.66;75.54
76291;DHT22;65100;46.884;17.410;2023-02-23T08:56:02;9.79;73.73
76291;DHT22;65100;46.884;17.410;2023-02-23T08:58:29;9.78;73.97
76291;DHT22;65100;46.884;17.410;2023-02-23T09:00:55;9.68;73.09
76291;DHT22;65100;46.884;17.410;2023-02-23T09:03:21;9.62;73.49
76291;DHT22;65100;46.884;17.410;2023-02-23T09:05:47;9.58;74.56
76291;DHT22;65100;46.884;17.410;2023-02-23T09:08:14;9.69;74.14
76291;DHT22;65100;46.884;17.410;2023-02-23T09:10:40;9.73;73.78
76291;DHT22;65100;46.884;17.410;2023-02-23T09:13:11;9.73;73.19
76291;DHT22;65100;46.884;17.410;2023-02-23T09:15:38;9.66;73.39
76291;DHT22;65100;46.884;17.410;2023-02-23T09:18:05;9.56;73.28
76291;DHT22;65100;46.884;17.410;2023-02-23T09:20:31;9.60;73.39
76291;DHT22;65100;46.884;17.410;2023-02-23T09:22:56;9.62;72.47
76291;DHT22;65100;46.884;17.410;2023-02-23T09:25:22;9.69;72.79
76291;DHT22;65100;46.884;17.410;2023-02-23T09:27:49;9.66;72.27
76291;DHT22;65100;46.884;17.410;2023-02-23T09:30:16;9.69;71.90
76291;DHT22;65100;46.884;17.410;2023-02-23T09:32:44;9.73;70.94
76291;DHT22;65100;46.884;17.410;2023-02-23T09:35:10;9.80;71.26
76291;DHT22;65100;46.884;17.410;2023-02-23T09:37:35;9.82;71.61
76291;DHT22;65100;46.884;17.410;2023-02-23T09:40:01;9.87;70.64
76291;DHT22;65100;46.884;17.410;2023-02-23T09:42:37;9.86;69.87
76291;DHT22;65100;46.884;17.410;2023-02-23T09:45:19;9.79;69.99
76291;DHT22;65100;46.884;17.410;2023-02-23T09:50:23;10.09;69.40
76291;DHT22;65100;46.884;17.410;2023-02-23T09:52:57;10.32;68.95
76291;DHT22;65100;46.884;17.410;2023-02-23T09:55:24;10.44;67.92
76291;DHT22;65100;46.884;17.410;2023-02-23T09:57:50;10.64;67.69
76291;DHT22;65100;46.884;17.410;2023-02-23T10:00:25;10.40;67.71
76291;DHT22;65100;46.884;17.410;2023-02-23T10:03:19;10.75;68.08
76291;DHT22;65100;46.884;17.410;2023-02-23T10:05:54;10.58;66.61
76291;DHT22;65100;46.884;17.410;2023-02-23T10:14:06;10.82;66.19
76291;DHT22;65100;46.884;17.410;2023-02-23T10:19:59;11.32;64.14
76291;DHT22;65100;46.884;17.410;2023-02-23T10:22:32;11.26;65.46
76291;DHT22;65100;46.884;17.410;2023-02-23T10:25:06;11.62;64.17
76291;DHT22;65100;46.884;17.410;2023-02-23T10:27:41;11.43;63.84
76291;DHT22;65100;46.884;17.410;2023-02-23T10:30:33;11.48;64.00
76291;DHT22;65100;46.884;17.410;2023-02-23T10:33:15;11.38;64.05
76291;DHT22;65100;46.884;17.410;2023-02-23T10:35:44;11.54;63.34
76291;DHT22;65100;46.884;17.410;2023-02-23T10:38:17;11.49;63.66
76291;DHT22;65100;46.884;17.410;2023-02-23T10:40:45;11.56;63.52
76291;DHT22;65100;46.884;17.410;2023-02-23T10:43:14;11.59;63.64
76291;DHT22;65100;46.884;17.410;2023-02-23T10:45:49;11.66;64.92
76291;DHT22;65100;46.884;17.410;2023-02-23T10:48:21;11.66;63.33
76291;DHT22;65100;46.884;17.410;2023-02-23T10:50:49;11.76;63.15
76291;DHT22;65100;46.884;17.410;2023-02-23T10:53:26;11.92;64.79
76291;DHT22;65100;46.884;17.410;2023-02-23T10:56:14;11.94;64.99
76291;DHT22;65100;46.884;17.410;2023-02-23T10:58:47;11.92;63.49
76291;DHT22;65100;46.884;17.410;2023-02-23T11:01:16;12.09;64.66
76291;DHT22;65100;46.884;17.410;2023-02-23T11:03:44;12.26;63.42
76291;DHT22;65100;46.884;17.410;2023-02-23T11:06:33;12.29;64.80
76291;DHT22;65100;46.884;17.410;2023-02-23T11:11:58;12.36;62.07
76291;DHT22;65100;46.884;17.410;2023-02-23T11:14:26;11.97;62.86
76291;DHT22;65100;46.884;17.410;2023-02-23T11:16:54;11.90;64.23
76291;DHT22;65100;46.884;17.410;2023-02-23T11:19:24;11.86;62.43
76291;DHT22;65100;46.884;17.410;2023-02-23T11:21:50;11.80;62.85
76291;DHT22;65100;46.884;17.410;2023-02-23T11:24:27;11.89;63.61
76291;DHT22;65100;46.884;17.410;2023-02-23T11:26:58;11.80;63.06
76291;DHT22;65100;46.884;17.410;2023-02-23T11:29:42;11.94;62.58
76291;DHT22;65100;46.884;17.410;2023-02-23T11:34:36;11.69;63.35
76291;DHT22;65100;46.884;17.410;2023-02-23T11:39:57;11.62;65.02
76291;DHT22;65100;46.884;17.410;2023-02-23T11:42:30;11.80;63.88
76291;DHT22;65100;46.884;17.410;2023-02-23T11:45:15;11.86;64.69
76291;DHT22;65100;46.884;17.410;2023-02-23T11:47:44;11.86;65.14
76291;DHT22;65100;46.884;17.410;2023-02-23T11:55:23;12.14;62.80
76291;DHT22;65100;46.884;17.410;2023-02-23T11:57:50;12.30;62.01
76291;DHT22;65100;46.884;17.410;2023-02-23T12:00:34;12.17;61.67
76291;DHT22;65100;46.884;17.410;2023-02-23T12:03:00;12.06;62.68
76291;DHT22;65100;46.884;17.410;2023-02-23T12:05:28;12.06;62.58
76291;DHT22;65100;46.884;17.410;2023-02-23T12:10:31;12.38;62.02
76291;DHT22;65100;46.884;17.410;2023-02-23T12:13:25;12.36;61.86
76291;DHT22;65100;46.884;17.410;2023-02-23T12:15:59;12.30;62.61
76291;DHT22;65100;46.884;17.410;2023-02-23T12:18:38;12.40;61.82
76291;DHT22;65100;46.884;17.410;2023-02-23T12:23:50;12.53;61.13
76291;DHT22;65100;46.884;17.410;2023-02-23T12:26:20;12.51;60.77
76291;DHT22;65100;46.884;17.410;2023-02-23T12:28:56;12.43;62.80
76291;DHT22;65100;46.884;17.410;2023-02-23T12:36:55;12.51;60.66
76291;DHT22;65100;46.884;17.410;2023-02-23T12:40:04;12.56;63.45
76291;DHT22;65100;46.884;17.410;2023-02-23T12:45:16;12.57;61.63
76291;DHT22;65100;46.884;17.410;2023-02-23T12:47:58;12.63;60.61
76291;DHT22;65100;46.884;17.410;2023-02-23T13:09:13;12.83;59.95
76291;DHT22;65100;46.884;17.410;2023-02-23T13:12:06;13.02;61.07
76291;DHT22;65100;46.884;17.410;2023-02-23T13:15:02;12.94;59.68
76291;DHT22;65100;46.884;17.410;2023-02-23T13:17:43;13.04;59.84
76291;DHT22;65100;46.884;17.410;2023-02-23T13:25:29;12.84;60.48
76291;DHT22;65100;46.884;17.410;2023-02-23T13:27:59;12.87;60.04
76291;DHT22;65100;46.884;17.410;2023-02-23T13:30:28;12.76;60.36
76291;DHT22;65100;46.884;17.410;2023-02-23T13:32:58;12.65;60.54
76291;DHT22;65100;46.884;17.410;2023-02-23T13:35:28;12.67;60.48
76291;DHT22;65100;46.884;17.410;2023-02-23T13:38:06;12.57;60.90
76291;DHT22;65100;46.884;17.410;2023-02-23T13:40:51;12.46;60.80
76291;DHT22;65100;46.884;17.410;2023-02-23T13:46:30;12.37;60.14
76291;DHT22;65100;46.884;17.410;2023-02-23T13:49:36;12.27;60.51
76291;DHT22;65100;46.884;17.410;2023-02-23T13:52:29;12.43;60.72
76291;DHT22;65100;46.884;17.410;2023-02-23T13:54:57;12.57;61.45
76291;DHT22;65100;46.884;17.410;2023-02-23T13:57:29;12.67;60.89
76291;DHT22;65100;46.884;17.410;2023-02-23T13:59:55;12.71;59.29
76291;DHT22;65100;46.884;17.410;2023-02-23T14:02:35;12.61;59.31
76291;DHT22;65100;46.884;17.410;2023-02-23T14:05:24;12.60;59.30
76291;DHT22;65100;46.884;17.410;2023-02-23T14:07:57;12.58;59.71
76291;DHT22;65100;46.884;17.410;2023-02-23T14:10:28;12.53;59.52
76291;DHT22;65100;46.884;17.410;2023-02-23T14:13:07;12.44;60.63
76291;DHT22;65100;46.884;17.410;2023-02-23T14:15:48;12.60;59.99
76291;DHT22;65100;46.884;17.410;2023-02-23T14:20:51;12.68;59.49
76291;DHT22;65100;46.884;17.410;2023-02-23T14:25:47;12.76;59.37
76291;DHT22;65100;46.884;17.410;2023-02-23T14:28:42;12.87;59.40
76291;DHT22;65100;46.884;17.410;2023-02-23T14:44:11;12.91;59.14
76291;DHT22;65100;46.884;17.410;2023-02-23T14:46:37;12.88;59.42
76291;DHT22;65100;46.884;17.410;2023-02-23T14:49:22;12.95;58.81
76291;DHT22;65100;46.884;17.410;2023-02-23T14:51:54;12.92;58.99
76291;DHT22;65100;46.884;17.410;2023-02-23T14:57:00;12.91;59.78
76291;DHT22;65100;46.884;17.410;2023-02-23T14:59:29;12.90;57.90
76291;DHT22;65100;46.884;17.410;2023-02-23T15:01:59;12.88;57.76
76291;DHT22;65100;46.884;17.410;2023-02-23T15:04:26;12.74;58.83
76291;DHT22;65100;46.884;17.410;2023-02-23T15:06:57;12.78;58.19
76291;DHT22;65100;46.884;17.410;2023-02-23T15:09:33;12.80;58.40
76291;DHT22;65100;46.884;17.410;2023-02-23T15:12:12;12.76;58.61
76291;DHT22;65100;46.884;17.410;2023-02-23T15:14:39;12.53;59.56
76291;DHT22;65100;46.884;17.410;2023-02-23T15:17:05;12.60;59.33
76291;DHT22;65100;46.884;17.410;2023-02-23T15:19:35;12.71;59.67
76291;DHT22;65100;46.884;17.410;2023-02-23T15:22:04;12.83;59.69
76291;DHT22;65100;46.884;17.410;2023-02-23T15:24:41;12.73;59.86
76291;DHT22;65100;46.884;17.410;2023-02-23T15:27:18;12.76;59.48
76291;DHT22;65100;46.884;17.410;2023-02-23T15:29:44;12.65;59.52
76291;DHT22;65100;46.884;17.410;2023-02-23T15:32:16;12.64;60.61
76291;DHT22;65100;46.884;17.410;2023-02-23T15:34:42;12.63;59.83
76291;DHT22;65100;46.884;17.410;2023-02-23T15:37:18;12.76;59.19
76291;DHT22;65100;46.884;17.410;2023-02-23T15:39:50;12.67;58.86
76291;DHT22;65100;46.884;17.410;2023-02-23T15:42:21;12.61;59.76
76291;DHT22;65100;46.884;17.410;2023-02-23T15:44:54;12.56;59.14
76291;DHT22;65100;46.884;17.410;2023-02-23T15:47:22;12.48;60.87
76291;DHT22;65100;46.884;17.410;2023-02-23T15:49:59;12.53;59.77
76291;DHT22;65100;46.884;17.410;2023-02-23T15:52:26;12.47;59.79
76291;DHT22;65100;46.884;17.410;2023-02-23T15:57:43;12.53;59.54
76291;DHT22;65100;46.884;17.410;2023-02-23T16:00:16;12.53;59.80
76291;DHT22;65100;46.884;17.410;2023-02-23T16:02:43;12.37;60.49
76291;DHT22;65100;46.884;17.410;2023-02-23T16:05:22;12.24;60.92
76291;DHT22;65100;46.884;17.410;2023-02-23T16:07:47;12.36;60.43
76291;DHT22;65100;46.884;17.410;2023-02-23T16:10:27;12.40;60.31
76291;DHT22;65100;46.884;17.410;2023-02-23T16:12:53;12.30;60.58
76291;DHT22;65100;46.884;17.410;2023-02-23T16:15:26;12.19;61.02
76291;DHT22;65100;46.884;17.410;2023-02-23T16:17:57;12.19;60.93
76291;DHT22;65100;46.884;17.410;2023-02-23T16:20:32;12.20;60.67
76291;DHT22;65100;46.884;17.410;2023-02-23T16:23:00;12.23;60.69
76291;DHT22;65100;46.884;17.410;2023-02-23T16:25:27;12.02;61.23
76291;DHT22;65100;46.884;17.410;2023-02-23T16:28:07;12.06;61.88
76291;DHT22;65100;46.884;17.410;2023-02-23T16:30:37;12.19;63.55
76291;DHT22;65100;46.884;17.410;2023-02-23T16:33:15;12.12;61.72
76291;DHT22;65100;46.884;17.410;2023-02-23T16:35:50;12.17;61.09
76291;DHT22;65100;46.884;17.410;2023-02-23T16:38:27;12.14;60.68
76291;DHT22;65100;46.884;17.410;2023-02-23T16:40:57;12.06;61.01
76291;DHT22;65100;46.884;17.410;2023-02-23T16:43:22;12.02;61.54
76291;DHT22;65100;46.884;17.410;2023-02-23T16:45:48;12.04;60.56
76291;DHT22;65100;46.884;17.410;2023-02-23T16:48:14;12.16;61.02
76291;DHT22;65100;46.884;17.410;2023-02-23T16:50:40;12.07;61.93
76291;DHT22;65100;46.884;17.410;2023-02-23T16:53:06;12.06;61.78
76291;DHT22;65100;46.884;17.410;2023-02-23T16:55:40;12.06;60.89
76291;DHT22;65100;46.884;17.410;2023-02-23T16:58:09;12.03;60.58
76291;DHT22;65100;46.884;17.410;2023-02-23T17:00:38;12.22;61.87
76291;DHT22;65100;46.884;17.410;2023-02-23T17:03:04;12.17;61.00
76291;DHT22;65100;46.884;17.410;2023-02-23T17:05:30;12.02;62.03
76291;DHT22;65100;46.884;17.410;2023-02-23T17:07:56;12.04;61.13
76291;DHT22;65100;46.884;17.410;2023-02-23T17:10:33;12.00;63.32
76291;DHT22;65100;46.884;17.410;2023-02-23T17:13:02;12.16;65.25
76291;DHT22;65100;46.884;17.410;2023-02-23T17:15:34;11.99;62.14
76291;DHT22;65100;46.884;17.410;2023-02-23T17:18:00;11.82;61.02
76291;DHT22;65100;46.884;17.410;2023-02-23T17:20:26;11.83;60.61
76291;DHT22;65100;46.884;17.410;2023-02-23T17:22:53;11.70;61.23
76291;DHT22;65100;46.884;17.410;2023-02-23T17:25:20;11.55;61.39
76291;DHT22;65100;46.884;17.410;2023-02-23T17:27:48;11.49;61.94
76291;DHT22;65100;46.884;17.410;2023-02-23T17:30:14;11.59;62.82
76291;DHT22;65100;46.884;17.410;2023-02-23T17:32:39;11.56;65.68
76291;DHT22;65100;46.884;17.410;2023-02-23T17:35:05;11.58;63.68
76291;DHT22;65100;46.884;17.410;2023-02-23T17:37:31;11.58;65.65
76291;DHT22;65100;46.884;17.410;2023-02-23T17:39:56;11.72;64.34
76291;DHT22;65100;46.884;17.410;2023-02-23T17:42:28;11.62;64.84
76291;DHT22;65100;46.884;17.410;2023-02-23T17:44:58;11.69;63.34
76291;DHT22;65100;46.884;17.410;2023-02-23T17:47:23;11.68;65.97
76291;DHT22;65100;46.884;17.410;2023-02-23T17:49:49;11.62;62.68
76291;DHT22;65100;46.884;17.410;2023-02-23T17:52:14;11.66;64.50
76291;DHT22;65100;46.884;17.410;2023-02-23T17:54:40;11.69;61.79
76291;DHT22;65100;46.884;17.410;2023-02-23T17:57:05;11.75;63.72
76291;DHT22;65100;46.884;17.410;2023-02-23T17:59:30;11.78;65.04
76291;DHT22;65100;46.884;17.410;2023-02-23T18:01:56;11.55;61.47